Time;durP1;ratioP1;P1;durP2;ratioP2;P2;SDS_P1;SDS_P2;PMS_P1;PMS_P2;Temp;Humidity;BMP_temperature;BMP_pressure;BME280_temperature;BME280_humidity;BME280_pressure;Samples;Min_cycle;Max_cycle;Signal;HPM_P1;HPM_P2
2021/04/09 00:00:24;;;;;;;22.70;11.77;;;3.50;95.40;;;;;;4942246;28;20206;-83
2021/04/09 00:03:13;;;;;;;21.63;10.73;;;3.30;96.00;;;;;;4944539;28;20219;-82
2021/04/09 00:05:45;;;;;;;18.27;11.30;;;3.10;96.40;;;;;;4930155;29;20242;-84
2021/04/09 00:08:13;;;;;;;21.30;10.70;;;3.10;98.50;;;;;;4928310;28;20230;-83
2021/04/09 00:10:42;;;;;;;19.10;11.47;;;3.10;98.90;;;;;;4929947;28;20225;-82
2021/04/09 00:13:10;;;;;;;18.47;12.07;;;3.00;98.70;;;;;;4922522;29;20709;-81
2021/04/09 00:15:41;;;;;;;19.03;11.67;;;3.10;99.60;;;;;;4925025;28;20229;-82
2021/04/09 00:18:09;;;;;;;21.17;11.53;;;3.10;99.20;;;;;;4933047;29;20269;-84
2021/04/09 00:20:37;;;;;;;19.90;12.17;;;3.10;98.40;;;;;;4930276;28;20202;-83
2021/04/09 00:23:04;;;;;;;22.83;12.93;;;3.20;98.10;;;;;;4936882;29;20197;-83
2021/04/09 00:25:32;;;;;;;18.17;12.23;;;3.30;97.30;;;;;;4935416;29;20235;-81
2021/04/09 00:28:01;;;;;;;26.10;13.30;;;3.20;97.10;;;;;;4924282;29;20226;-82
2021/04/09 00:30:29;;;;;;;25.53;14.10;;;3.20;96.90;;;;;;4929767;28;20199;-81
2021/04/09 00:32:57;;;;;;;20.63;13.10;;;3.20;96.50;;;;;;4922206;28;20312;-82
2021/04/09 00:35:27;;;;;;;18.97;11.73;;;3.10;96.20;;;;;;4924873;29;20397;-83
2021/04/09 00:37:55;;;;;;;24.53;12.77;;;3.10;96.40;;;;;;4920827;29;20548;-81
2021/04/09 00:40:24;;;;;;;21.03;11.80;;;3.00;96.90;;;;;;4930028;28;20209;-83
2021/04/09 00:42:51;;;;;;;20.63;13.50;;;2.90;97.80;;;;;;4928997;29;20218;-80
2021/04/09 00:45:20;;;;;;;24.73;13.97;;;2.90;97.90;;;;;;4931361;29;20235;-80
2021/04/09 00:47:48;;;;;;;24.23;13.87;;;2.90;98.30;;;;;;4948566;28;20188;-81
2021/04/09 00:50:17;;;;;;;24.37;13.80;;;2.90;98.20;;;;;;4933998;28;20216;-82
2021/04/09 00:52:45;;;;;;;25.30;14.70;;;2.90;97.80;;;;;;4939328;28;20266;-83
2021/04/09 00:55:14;;;;;;;26.03;14.23;;;3.00;97.90;;;;;;4933843;28;20761;-81
2021/04/09 00:57:43;;;;;;;25.53;16.07;;;2.80;97.40;;;;;;4928727;28;20214;-82
2021/04/09 01:00:13;;;;;;;24.73;14.23;;;2.90;97.50;;;;;;4924877;29;20207;-80
2021/04/09 01:02:42;;;;;;;26.47;15.50;;;2.70;97.50;;;;;;4926460;28;20208;-83
2021/04/09 01:05:13;;;;;;;26.73;15.37;;;2.70;97.10;;;;;;4949075;29;20195;-82
2021/04/09 01:07:41;;;;;;;27.73;14.90;;;2.70;97.00;;;;;;4937247;28;20322;-82
2021/04/09 01:10:15;;;;;;;28.90;15.23;;;2.70;96.80;;;;;;4926128;28;20202;-82
2021/04/09 01:12:43;;;;;;;29.13;15.73;;;2.70;96.30;;;;;;4931195;28;20721;-81
2021/04/09 01:15:12;;;;;;;28.07;16.13;;;2.70;95.40;;;;;;4921957;28;20197;-82
2021/04/09 01:17:43;;;;;;;32.07;16.00;;;2.70;95.20;;;;;;4927474;29;20213;-83
2021/04/09 01:20:26;;;;;;;24.53;14.77;;;2.70;94.60;;;;;;4922490;29;20214;-83
2021/04/09 01:23:06;;;;;;;23.47;14.70;;;2.70;94.40;;;;;;4932693;29;20289;-82
2021/04/09 01:26:11;;;;;;;28.03;15.33;;;2.80;94.10;;;;;;4926360;29;20213;-81
2021/04/09 01:28:48;;;;;;;26.50;15.13;;;2.70;93.70;;;;;;4924373;29;20207;-80
2021/04/09 01:31:35;;;;;;;26.17;13.90;;;2.70;93.80;;;;;;4917642;29;20218;-82
2021/04/09 01:34:04;;;;;;;21.33;13.93;;;2.50;93.70;;;;;;4935701;29;20445;-84
2021/04/09 01:36:37;;;;;;;29.10;14.63;;;2.60;93.50;;;;;;4928848;29;20277;-83
2021/04/09 01:39:10;;;;;;;23.93;14.10;;;2.60;93.10;;;;;;4930206;29;20205;-82
2021/04/09 01:41:42;;;;;;;22.93;13.57;;;2.60;92.90;;;;;;4936871;29;21137;-81
2021/04/09 01:44:12;;;;;;;23.30;14.03;;;2.60;92.70;;;;;;4930517;29;20206;-81
2021/04/09 01:46:43;;;;;;;27.53;14.57;;;2.60;92.40;;;;;;4921059;29;20203;-83
2021/04/09 01:49:12;;;;;;;23.60;13.90;;;2.50;92.30;;;;;;4927920;29;20181;-82
2021/04/09 01:51:41;;;;;;;23.40;14.00;;;2.50;92.10;;;;;;4934131;29;21130;-83
2021/04/09 01:54:11;;;;;;;24.47;13.77;;;2.50;92.00;;;;;;4941991;29;20206;-82
2021/04/09 01:56:40;;;;;;;25.27;14.37;;;2.50;91.90;;;;;;4948161;28;20197;-83
2021/04/09 01:59:08;;;;;;;20.77;13.73;;;2.30;92.10;;;;;;4930367;28;20519;-83
2021/04/09 02:01:37;;;;;;;22.60;13.93;;;2.30;92.30;;;;;;4934146;29;20460;-82
2021/04/09 02:04:06;;;;;;;19.87;13.30;;;2.30;92.40;;;;;;4939904;29;20205;-80
2021/04/09 02:06:35;;;;;;;20.70;12.67;;;2.20;92.50;;;;;;4939751;29;20209;-83
2021/04/09 02:09:04;;;;;;;23.03;12.00;;;2.20;92.40;;;;;;4936864;29;20533;-84
2021/04/09 02:11:34;;;;;;;25.03;13.60;;;2.20;92.40;;;;;;4927500;29;20213;-81
2021/04/09 02:14:03;;;;;;;20.80;12.33;;;2.10;92.20;;;;;;4947701;28;20239;-81
2021/04/09 02:16:31;;;;;;;20.60;13.67;;;2.20;92.10;;;;;;4929084;29;20199;-84
2021/04/09 02:18:59;;;;;;;23.37;13.37;;;2.10;92.40;;;;;;4948422;29;20230;-82
2021/04/09 02:21:31;;;;;;;24.87;14.07;;;2.10;92.40;;;;;;4931310;28;20209;-81
2021/04/09 02:23:59;;;;;;;20.27;12.67;;;2.10;92.40;;;;;;4931252;28;20206;-82
2021/04/09 02:26:28;;;;;;;26.50;12.87;;;2.00;92.30;;;;;;4932260;28;20206;-82
2021/04/09 02:28:56;;;;;;;22.50;13.37;;;1.90;92.30;;;;;;4932889;29;20205;-82
2021/04/09 02:31:24;;;;;;;23.53;12.90;;;1.80;92.60;;;;;;4936677;28;20225;-82
2021/04/09 02:33:52;;;;;;;21.30;13.00;;;1.70;93.10;;;;;;4934195;29;20222;-81
2021/04/09 02:36:22;;;;;;;21.13;12.70;;;1.70;93.60;;;;;;4926572;28;20292;-82
2021/04/09 02:38:54;;;;;;;21.03;12.60;;;1.60;93.30;;;;;;4931699;29;20208;-82
2021/04/09 02:41:25;;;;;;;23.63;12.20;;;1.60;93.90;;;;;;4932942;28;20207;-82
2021/04/09 02:43:52;;;;;;;20.80;12.00;;;1.60;94.10;;;;;;4934065;29;20213;-84
2021/04/09 02:46:26;;;;;;;20.60;12.67;;;1.60;94.20;;;;;;4930667;29;20205;-81
2021/04/09 02:48:59;;;;;;;21.63;12.90;;;1.70;94.10;;;;;;4934404;28;20259;-83
2021/04/09 02:51:28;;;;;;;25.40;12.53;;;1.30;94.60;;;;;;4933857;28;20205;-81
2021/04/09 02:54:00;;;;;;;22.00;12.63;;;1.30;95.10;;;;;;4929811;28;20218;-82
2021/04/09 02:56:28;;;;;;;22.53;12.40;;;1.20;95.30;;;;;;4923355;29;20213;-80
2021/04/09 02:58:58;;;;;;;22.93;13.27;;;1.20;96.00;;;;;;4923059;29;20318;-81
2021/04/09 03:01:27;;;;;;;22.87;12.33;;;1.00;95.90;;;;;;4934764;29;20213;-81
2021/04/09 03:03:56;;;;;;;22.67;13.17;;;1.10;96.50;;;;;;4931708;29;20731;-82
2021/04/09 03:06:25;;;;;;;20.50;12.43;;;1.10;96.80;;;;;;4929628;29;20201;-83
2021/04/09 03:08:52;;;;;;;18.87;11.20;;;1.10;96.70;;;;;;4937758;28;20209;-82
2021/04/09 03:11:23;;;;;;;21.03;11.80;;;1.10;96.70;;;;;;4934150;29;20217;-84
2021/04/09 03:13:50;;;;;;;21.93;11.17;;;1.10;96.50;;;;;;4936332;28;20262;-84
2021/04/09 03:16:22;;;;;;;19.83;10.97;;;1.10;96.40;;;;;;4938845;28;20204;-83
2021/04/09 03:18:50;;;;;;;18.20;12.23;;;1.00;96.20;;;;;;4931770;29;20626;-83
2021/04/09 03:21:18;;;;;;;22.53;12.33;;;1.00;96.60;;;;;;4936862;28;20198;-81
2021/04/09 03:23:46;;;;;;;20.73;10.97;;;1.10;96.70;;;;;;4947642;28;20202;-81
2021/04/09 03:26:14;;;;;;;21.90;11.33;;;1.10;96.50;;;;;;4947264;28;20207;-81
2021/04/09 03:28:43;;;;;;;19.17;11.40;;;1.10;96.30;;;;;;4937559;28;20279;-81
2021/04/09 03:31:10;;;;;;;19.93;10.33;;;1.00;95.90;;;;;;4948849;28;20194;-81
2021/04/09 03:33:38;;;;;;;18.47;11.40;;;0.90;95.90;;;;;;4942600;28;20399;-82
2021/04/09 03:36:06;;;;;;;17.17;10.47;;;0.80;96.30;;;;;;4920712;29;20286;-82
2021/04/09 03:38:34;;;;;;;21.73;11.57;;;0.80;96.70;;;;;;4931135;29;20214;-82
2021/04/09 03:41:01;;;;;;;21.63;11.67;;;0.80;97.30;;;;;;4955939;28;20197;-83
2021/04/09 03:43:29;;;;;;;20.67;11.50;;;0.90;97.40;;;;;;4940522;28;20571;-82
2021/04/09 03:45:57;;;;;;;19.70;10.60;;;0.80;97.30;;;;;;4932291;29;20296;-82
2021/04/09 03:48:25;;;;;;;20.30;11.33;;;0.80;97.00;;;;;;4925623;29;20219;-83
2021/04/09 03:50:53;;;;;;;20.20;11.40;;;0.80;96.80;;;;;;4948802;28;20347;-82
2021/04/09 03:53:20;;;;;;;22.80;11.00;;;0.70;96.60;;;;;;4943366;28;20246;-82
2021/04/09 03:55:48;;;;;;;17.90;11.63;;;0.70;96.90;;;;;;4927842;29;20218;-83
2021/04/09 03:58:15;;;;;;;19.80;10.87;;;0.70;97.50;;;;;;4939031;28;20205;-81
2021/04/09 04:00:43;;;;;;;23.03;11.27;;;0.70;97.40;;;;;;4925921;29;20238;-81
2021/04/09 04:03:12;;;;;;;19.60;11.20;;;0.70;97.40;;;;;;4928876;29;20198;-82
2021/04/09 04:05:39;;;;;;;21.10;11.00;;;0.70;97.40;;;;;;4921712;28;20202;-82
2021/04/09 04:08:07;;;;;;;21.33;11.30;;;0.70;97.10;;;;;;4924974;28;20216;-82
2021/04/09 04:10:34;;;;;;;25.07;11.30;;;0.70;97.30;;;;;;4926792;28;20352;-81
2021/04/09 04:13:02;;;;;;;16.53;9.93;;;0.70;97.60;;;;;;4923330;28;20237;-80
2021/04/09 04:15:30;;;;;;;18.40;10.70;;;0.70;97.20;;;;;;4921519;29;20641;-83
2021/04/09 04:17:58;;;;;;;20.17;10.07;;;0.80;96.80;;;;;;4926230;28;20282;-81
2021/04/09 04:20:27;;;;;;;16.50;10.53;;;0.70;96.60;;;;;;4926911;29;20214;-81
2021/04/09 04:22:54;;;;;;;17.70;9.83;;;0.70;96.50;;;;;;4912803;29;20749;-81
2021/04/09 04:25:22;;;;;;;19.63;10.60;;;0.80;96.30;;;;;;4910622;29;20223;-81
2021/04/09 04:27:51;;;;;;;18.13;10.40;;;0.80;95.90;;;;;;4922381;29;20221;-81
2021/04/09 04:30:19;;;;;;;19.07;10.40;;;0.80;95.70;;;;;;4934366;29;20211;-82
2021/04/09 04:32:47;;;;;;;18.20;10.80;;;0.90;95.60;;;;;;4936821;28;20243;-82
2021/04/09 04:35:15;;;;;;;18.47;11.13;;;0.90;95.50;;;;;;4941997;28;20194;-84
2021/04/09 04:37:44;;;;;;;18.57;10.67;;;0.90;95.50;;;;;;4940378;28;20249;-81
2021/04/09 04:40:13;;;;;;;22.63;11.17;;;0.90;95.30;;;;;;4946030;28;20280;-83
2021/04/09 04:42:41;;;;;;;16.07;10.30;;;1.00;95.40;;;;;;4927397;29;20228;-82
2021/04/09 04:45:10;;;;;;;19.30;10.93;;;1.00;95.20;;;;;;4931412;28;20217;-84
2021/04/09 04:47:37;;;;;;;18.27;10.87;;;1.00;95.00;;;;;;4927211;28;20245;-84
2021/04/09 04:50:07;;;;;;;20.33;11.40;;;1.00;94.90;;;;;;4929817;28;20214;-84
2021/04/09 04:52:35;;;;;;;19.63;10.50;;;1.10;94.70;;;;;;4918740;28;20244;-82
2021/04/09 04:55:04;;;;;;;17.40;10.83;;;1.20;94.60;;;;;;4932377;28;20206;-81
2021/04/09 04:57:32;;;;;;;19.87;11.13;;;1.30;94.40;;;;;;4919830;29;20312;-82
2021/04/09 05:00:00;;;;;;;19.30;10.87;;;1.30;93.80;;;;;;4922296;28;20201;-85
2021/04/09 05:02:30;;;;;;;16.27;10.20;;;1.30;93.60;;;;;;4917757;28;20205;-83
2021/04/09 05:04:58;;;;;;;18.30;10.03;;;1.40;93.20;;;;;;4930076;29;20220;-82
2021/04/09 05:07:27;;;;;;;19.50;10.90;;;1.40;93.10;;;;;;4945389;28;20193;-83
2021/04/09 05:09:54;;;;;;;22.20;11.87;;;1.50;92.50;;;;;;4933671;28;20185;-80
2021/04/09 05:12:23;;;;;;;17.27;10.90;;;1.60;92.70;;;;;;4937063;28;20228;-79
2021/04/09 05:14:51;;;;;;;18.10;10.63;;;1.60;92.20;;;;;;4917412;28;20214;-81
2021/04/09 05:17:19;;;;;;;18.33;10.50;;;1.70;92.10;;;;;;4922105;28;20214;-82
2021/04/09 05:19:50;;;;;;;15.67;10.17;;;1.80;92.10;;;;;;4926583;29;20440;-82
2021/04/09 05:22:20;;;;;;;18.73;11.13;;;1.90;91.80;;;;;;4936011;29;20288;-83
2021/04/09 05:24:48;;;;;;;18.00;10.33;;;1.90;91.30;;;;;;4928564;29;20202;-80
2021/04/09 05:27:17;;;;;;;17.10;10.87;;;2.10;90.90;;;;;;4914566;29;20226;-81
2021/04/09 05:29:46;;;;;;;18.07;10.63;;;2.10;90.80;;;;;;4916726;29;20612;-82
2021/04/09 05:32:14;;;;;;;18.50;10.80;;;2.20;90.30;;;;;;4912891;28;20416;-80
2021/04/09 05:34:42;;;;;;;20.33;10.80;;;2.30;90.30;;;;;;4916693;29;20210;-80
2021/04/09 05:37:10;;;;;;;16.90;11.03;;;2.60;90.20;;;;;;4914805;29;20304;-82
2021/04/09 05:39:37;;;;;;;18.20;11.67;;;2.50;90.10;;;;;;4920342;29;20207;-82
2021/04/09 05:42:07;;;;;;;20.50;10.70;;;2.70;90.00;;;;;;4926734;29;20506;-79
2021/04/09 05:44:40;;;;;;;18.03;10.47;;;2.70;88.90;;;;;;4928767;28;20659;-79
2021/04/09 05:47:08;;;;;;;18.63;11.63;;;2.70;88.80;;;;;;4914499;28;20268;-80
2021/04/09 05:49:37;;;;;;;20.90;11.20;;;2.80;89.00;;;;;;4923051;29;20229;-80
2021/04/09 05:52:09;;;;;;;19.27;12.27;;;2.80;88.60;;;;;;4917678;29;20505;-79
2021/04/09 05:54:39;;;;;;;21.27;11.67;;;2.90;88.50;;;;;;4917838;29;20201;-81
2021/04/09 05:57:08;;;;;;;15.57;10.33;;;3.00;88.60;;;;;;4914504;28;20319;-80
2021/04/09 05:59:35;;;;;;;17.20;11.00;;;3.10;88.00;;;;;;4919903;29;20206;-80
2021/04/09 06:02:04;;;;;;;17.53;11.33;;;3.20;87.50;;;;;;4919378;29;20226;-81
2021/04/09 06:04:32;;;;;;;18.17;11.50;;;3.30;87.40;;;;;;4917350;28;20207;-81
2021/04/09 06:07:00;;;;;;;19.10;10.77;;;3.40;87.60;;;;;;4911377;28;21270;-81
2021/04/09 06:09:32;;;;;;;23.10;11.77;;;3.50;87.00;;;;;;4925700;28;20199;-79
2021/04/09 06:12:00;;;;;;;22.37;10.97;;;3.60;86.80;;;;;;4922148;29;20291;-81
2021/04/09 06:14:28;;;;;;;16.83;11.37;;;3.70;86.20;;;;;;4926388;28;20248;-81
2021/04/09 06:16:56;;;;;;;20.60;11.17;;;3.80;86.00;;;;;;4911622;28;20216;-80
2021/04/09 06:19:27;;;;;;;18.17;10.70;;;3.90;86.10;;;;;;4912417;29;20286;-82
2021/04/09 06:21:56;;;;;;;17.67;11.20;;;3.90;85.50;;;;;;4910331;28;20972;-82
2021/04/09 06:24:24;;;;;;;17.50;11.20;;;3.80;85.50;;;;;;4908699;29;20212;-81
2021/04/09 06:26:52;;;;;;;20.27;10.83;;;4.10;85.00;;;;;;4901950;28;20667;-82
2021/04/09 06:29:25;;;;;;;14.17;11.00;;;4.20;84.60;;;;;;4911242;28;20210;-80
2021/04/09 06:31:52;;;;;;;18.43;10.87;;;4.20;84.30;;;;;;4921003;28;20650;-80
2021/04/09 06:34:20;;;;;;;16.83;11.27;;;4.30;84.50;;;;;;4931432;28;20305;-81
2021/04/09 06:36:48;;;;;;;17.13;11.70;;;4.40;84.20;;;;;;4922878;28;20260;-80
2021/04/09 06:39:18;;;;;;;17.93;11.57;;;4.50;84.10;;;;;;4926048;28;20240;-82
2021/04/09 06:41:46;;;;;;;18.70;11.37;;;4.60;83.70;;;;;;4923961;28;20229;-81
2021/04/09 06:44:14;;;;;;;20.00;10.67;;;4.70;84.00;;;;;;4922396;28;20281;-82
2021/04/09 06:46:42;;;;;;;18.00;10.90;;;4.80;83.80;;;;;;4916428;28;20559;-79
2021/04/09 06:49:11;;;;;;;17.70;11.00;;;4.90;83.40;;;;;;4924936;28;20206;-81
2021/04/09 06:51:44;;;;;;;21.60;11.23;;;4.90;83.10;;;;;;4939301;29;20224;-82
2021/04/09 06:54:15;;;;;;;17.87;10.73;;;5.00;83.30;;;;;;4940735;28;20258;-82
2021/04/09 06:56:44;;;;;;;16.93;10.80;;;5.20;82.90;;;;;;4935655;28;20209;-81
2021/04/09 06:59:16;;;;;;;18.77;11.27;;;5.30;82.70;;;;;;4940706;28;20190;-81
2021/04/09 07:01:46;;;;;;;16.10;10.70;;;5.50;82.40;;;;;;4948005;28;20224;-81
2021/04/09 07:04:15;;;;;;;18.53;11.60;;;5.50;82.20;;;;;;4943075;28;20298;-81
2021/04/09 07:06:44;;;;;;;17.87;11.40;;;5.60;82.20;;;;;;4937801;28;20204;-80
2021/04/09 07:09:14;;;;;;;17.50;11.50;;;5.70;82.30;;;;;;4943376;28;20210;-80
2021/04/09 07:11:53;;;;;;;16.53;11.43;;;5.90;82.30;;;;;;4941496;28;20230;-79
2021/04/09 07:14:50;;;;;;;14.73;9.60;;;5.90;81.50;;;;;;4941123;28;20209;-82
2021/04/09 07:17:25;;;;;;;15.73;10.33;;;6.00;81.10;;;;;;4934405;28;20389;-79
2021/04/09 07:20:18;;;;;;;14.17;9.57;;;6.10;81.20;;;;;;4937149;28;20236;-81
2021/04/09 07:22:49;;;;;;;14.93;9.47;;;6.20;81.00;;;;;;4923918;29;20199;-82
2021/04/09 07:25:21;;;;;;;13.47;8.97;;;6.40;80.70;;;;;;4928076;29;20241;-81
2021/04/09 07:28:10;;;;;;;13.00;9.20;;;6.50;80.50;;;;;;4935483;29;20194;-83
2021/04/09 07:30:41;;;;;;;14.07;9.50;;;6.60;80.10;;;;;;4942374;28;20201;-83
2021/04/09 07:33:11;;;;;;;14.17;9.20;;;6.70;80.10;;;;;;4945997;28;20287;-80
2021/04/09 07:35:49;;;;;;;11.90;9.07;;;6.90;79.40;;;;;;4936524;28;20185;-81
2021/04/09 07:38:24;;;;;;;14.40;8.23;;;6.90;79.30;;;;;;4943445;28;20194;-81
2021/04/09 07:40:57;;;;;;;13.67;9.03;;;6.90;78.70;;;;;;4944147;28;20287;-83
2021/04/09 07:43:29;;;;;;;12.10;8.57;;;7.00;78.70;;;;;;4937984;29;20213;-83
2021/04/09 07:46:01;;;;;;;11.20;8.50;;;7.00;78.70;;;;;;4923190;29;20212;-81
2021/04/09 07:48:31;;;;;;;11.67;7.77;;;7.20;78.10;;;;;;4929674;29;20235;-80
2021/04/09 07:51:00;;;;;;;10.80;7.30;;;7.20;77.00;;;;;;4920395;29;21286;-81
2021/04/09 07:53:41;;;;;;;11.83;7.53;;;7.20;76.60;;;;;;4919447;28;20645;-84
2021/04/09 07:56:10;;;;;;;11.37;7.53;;;7.30;76.00;;;;;;4918399;29;20208;-81
2021/04/09 07:58:42;;;;;;;11.57;7.17;;;7.30;75.50;;;;;;4922030;28;20727;-84
2021/04/09 08:01:20;;;;;;;11.13;7.40;;;7.30;74.80;;;;;;4942623;28;20193;-81
2021/04/09 08:03:50;;;;;;;8.23;6.80;;;7.30;74.50;;;;;;4920982;28;20199;-83
2021/04/09 08:06:20;;;;;;;7.93;6.43;;;7.30;73.80;;;;;;4890842;28;20229;-83
2021/04/09 08:09:00;;;;;;;9.50;6.37;;;7.30;74.10;;;;;;4929225;29;20209;-80
2021/04/09 08:11:33;;;;;;;9.43;6.27;;;7.40;73.70;;;;;;4924185;28;20203;-82
2021/04/09 08:14:07;;;;;;;9.27;6.17;;;7.40;72.50;;;;;;4918652;29;20748;-83
2021/04/09 08:16:38;;;;;;;6.67;5.80;;;7.40;72.60;;;;;;4920516;29;20218;-83
2021/04/09 08:19:10;;;;;;;8.77;6.70;;;7.30;72.00;;;;;;4925069;29;20669;-82
2021/04/09 08:21:44;;;;;;;10.40;6.43;;;7.20;72.20;;;;;;4938304;28;20208;-81
2021/04/09 08:24:12;;;;;;;9.43;7.17;;;7.20;72.50;;;;;;4924018;29;20234;-83
2021/04/09 08:26:41;;;;;;;11.13;6.30;;;7.30;72.50;;;;;;4930317;29;20216;-82
2021/04/09 08:29:11;;;;;;;10.93;6.80;;;7.40;71.80;;;;;;4925537;29;20209;-83
2021/04/09 08:31:40;;;;;;;8.27;6.40;;;7.40;71.80;;;;;;4937624;28;20636;-82
2021/04/09 08:34:09;;;;;;;12.80;7.70;;;7.40;71.90;;;;;;4939249;28;20209;-82
2021/04/09 08:36:38;;;;;;;10.43;7.13;;;7.50;71.90;;;;;;4942206;28;20224;-81
2021/04/09 08:39:10;;;;;;;10.93;7.37;;;7.50;72.50;;;;;;4929824;28;20330;-81
2021/04/09 08:41:40;;;;;;;10.43;7.27;;;7.60;72.10;;;;;;4942983;29;20313;-81
2021/04/09 08:44:13;;;;;;;11.73;7.23;;;7.70;71.90;;;;;;4946634;29;20187;-84
2021/04/09 08:46:41;;;;;;;10.67;6.30;;;7.70;71.40;;;;;;4937524;28;21224;-83
2021/04/09 08:49:12;;;;;;;10.13;7.07;;;7.70;70.80;;;;;;4940959;28;20203;-80
2021/04/09 08:51:42;;;;;;;11.23;7.50;;;7.80;71.80;;;;;;4943202;29;20197;-82
2021/04/09 08:54:28;;;;;;;10.10;7.20;;;8.00;71.10;;;;;;4936680;28;20227;-80
2021/04/09 08:56:58;;;;;;;10.03;7.27;;;8.10;71.20;;;;;;4933922;28;20199;-80
2021/04/09 08:59:42;;;;;;;10.20;7.27;;;8.10;69.90;;;;;;4942583;29;20247;-80
2021/04/09 09:02:14;;;;;;;8.93;5.93;;;8.30;71.00;;;;;;4934465;29;20424;-83
2021/04/09 09:05:00;;;;;;;6.57;4.80;;;8.40;69.20;;;;;;4945126;28;20199;-83
2021/04/09 09:08:06;;;;;;;7.03;5.33;;;8.60;68.30;;;;;;4937195;29;20211;-82
2021/04/09 09:10:56;;;;;;;8.43;5.47;;;8.70;67.50;;;;;;4947828;29;20228;-83
2021/04/09 09:13:28;;;;;;;7.03;5.43;;;8.80;65.70;;;;;;4936787;28;20272;-81
2021/04/09 09:16:16;;;;;;;9.53;5.53;;;8.70;65.00;;;;;;4937318;28;20502;-80
2021/04/09 09:18:56;;;;;;;8.07;5.97;;;8.70;64.80;;;;;;4930115;28;20206;-83
2021/04/09 09:21:39;;;;;;;9.03;5.87;;;8.80;65.40;;;;;;4938240;28;20241;-80
2021/04/09 09:24:24;;;;;;;7.67;5.70;;;9.00;64.40;;;;;;4940269;29;20213;-81
2021/04/09 09:26:52;;;;;;;6.97;5.73;;;8.90;63.60;;;;;;4941617;28;20237;-83
2021/04/09 09:29:22;;;;;;;8.60;5.90;;;8.80;64.30;;;;;;4948409;28;20198;-81
2021/04/09 09:31:59;;;;;;;10.67;7.10;;;8.90;63.80;;;;;;4938763;28;20218;-83
2021/04/09 09:34:39;;;;;;;10.43;6.60;;;8.90;63.90;;;;;;4928522;29;20234;-83
2021/04/09 09:37:10;;;;;;;9.07;6.33;;;8.90;63.80;;;;;;4940440;29;20243;-83
2021/04/09 09:39:46;;;;;;;8.03;5.60;;;8.90;62.90;;;;;;4936453;29;20598;-84
2021/04/09 09:42:30;;;;;;;10.03;6.27;;;8.60;62.40;;;;;;4932798;29;20495;-80
2021/04/09 09:44:59;;;;;;;8.30;6.00;;;8.40;62.60;;;;;;4930082;29;20233;-82
2021/04/09 09:47:31;;;;;;;9.43;6.20;;;8.20;62.60;;;;;;4925872;29;20208;-84
2021/04/09 09:50:30;;;;;;;8.90;6.27;;;8.40;62.90;;;;;;4934994;28;20902;-82
2021/04/09 09:53:03;;;;;;;9.40;6.70;;;8.50;63.40;;;;;;4936958;29;20209;-81
2021/04/09 09:55:32;;;;;;;10.37;7.80;;;8.80;62.70;;;;;;4937349;29;20198;-80
2021/04/09 09:58:05;;;;;;;10.23;7.20;;;8.90;62.30;;;;;;4940771;29;20224;-83
2021/04/09 10:00:37;;;;;;;10.57;6.87;;;9.00;62.40;;;;;;4937026;29;20234;-83
2021/04/09 10:03:25;;;;;;;9.97;6.97;;;9.10;61.70;;;;;;4937374;29;20221;-80
2021/04/09 10:05:55;;;;;;;8.47;6.70;;;9.30;62.80;;;;;;4934593;29;20234;-82
2021/04/09 10:08:24;;;;;;;12.17;7.03;;;9.70;61.70;;;;;;4929685;29;20213;-81
2021/04/09 10:10:54;;;;;;;10.37;7.20;;;9.80;61.40;;;;;;4931786;29;20257;-80
2021/04/09 10:13:27;;;;;;;9.00;7.07;;;9.80;60.90;;;;;;4936413;29;20228;-83
2021/04/09 10:16:10;;;;;;;10.87;6.97;;;9.90;60.90;;;;;;4937292;29;20957;-85
2021/04/09 10:18:50;;;;;;;10.20;6.90;;;9.80;60.40;;;;;;4947142;28;20225;-81
2021/04/09 10:21:21;;;;;;;8.07;6.50;;;9.80;61.40;;;;;;4946557;28;20213;-85
2021/04/09 10:23:52;;;;;;;11.13;7.37;;;10.00;61.30;;;;;;4944894;28;20587;-82
2021/04/09 10:26:24;;;;;;;7.73;6.60;;;10.10;60.70;;;;;;4941189;29;20432;-82
2021/04/09 10:28:53;;;;;;;10.83;7.30;;;10.00;60.30;;;;;;4947547;28;20223;-81
2021/04/09 10:31:25;;;;;;;8.97;6.33;;;10.00;60.20;;;;;;4939609;28;20228;-83
2021/04/09 10:33:56;;;;;;;9.27;6.70;;;10.00;60.80;;;;;;4935549;28;20236;-81
2021/04/09 10:36:27;;;;;;;11.23;6.93;;;10.10;60.50;;;;;;4920631;28;20691;-83
2021/04/09 10:38:56;;;;;;;7.73;5.97;;;10.00;60.00;;;;;;4922563;28;20199;-79
2021/04/09 10:41:27;;;;;;;9.97;6.00;;;9.80;59.40;;;;;;4924814;28;20331;-82
2021/04/09 10:43:57;;;;;;;9.23;6.23;;;9.70;60.00;;;;;;4929353;29;20483;-81
2021/04/09 10:46:27;;;;;;;9.23;6.53;;;9.70;59.00;;;;;;4927882;29;20349;-83
2021/04/09 10:49:01;;;;;;;10.17;5.90;;;9.70;59.60;;;;;;4938287;29;20539;-81
2021/04/09 10:51:30;;;;;;;9.03;6.33;;;9.70;58.90;;;;;;4958622;28;20358;-82
2021/04/09 10:54:12;;;;;;;10.63;6.30;;;9.80;59.10;;;;;;4958536;28;20224;-84
2021/04/09 10:56:42;;;;;;;9.07;5.90;;;10.00;59.20;;;;;;4940561;28;20186;-83
2021/04/09 10:59:11;;;;;;;9.03;6.80;;;10.00;56.10;;;;;;4949725;28;20289;-82
2021/04/09 11:01:41;;;;;;;9.10;6.67;;;10.00;56.50;;;;;;4936817;28;20217;-84
2021/04/09 11:04:13;;;;;;;8.97;6.00;;;10.20;57.60;;;;;;4934997;28;20210;-82
2021/04/09 11:06:52;;;;;;;7.83;6.20;;;10.20;57.30;;;;;;4935373;29;20206;-82
2021/04/09 11:09:21;;;;;;;7.63;6.70;;;10.30;56.70;;;;;;4943323;29;20272;-82
2021/04/09 11:11:49;;;;;;;8.33;6.30;;;10.40;57.10;;;;;;4950649;28;20196;-82
2021/04/09 11:14:37;;;;;;;13.00;6.30;;;10.60;57.10;;;;;;4947951;28;20296;-80
2021/04/09 11:17:05;;;;;;;8.17;5.97;;;10.60;56.10;;;;;;4928716;28;20213;-82
2021/04/09 11:19:38;;;;;;;8.30;6.37;;;10.60;54.90;;;;;;4930699;29;20232;-84
2021/04/09 11:22:09;;;;;;;10.80;6.20;;;10.60;55.20;;;;;;4922258;29;20202;-81
2021/04/09 11:24:42;;;;;;;8.70;6.80;;;10.60;55.80;;;;;;4926563;28;20205;-79
2021/04/09 11:27:22;;;;;;;9.43;6.53;;;10.70;56.20;;;;;;4917788;29;20210;-82
2021/04/09 11:29:50;;;;;;;9.70;6.70;;;10.80;56.40;;;;;;4931010;29;20306;-83
2021/04/09 11:32:21;;;;;;;9.10;6.87;;;10.80;54.80;;;;;;4933003;28;20221;-79
2021/04/09 11:34:52;;;;;;;11.50;6.70;;;10.90;54.50;;;;;;4930551;28;20245;-80
2021/04/09 11:37:44;;;;;;;9.33;6.53;;;10.80;54.50;;;;;;4941403;28;20208;-83
2021/04/09 11:40:14;;;;;;;8.23;6.77;;;10.80;53.80;;;;;;4928508;29;20383;-83
2021/04/09 11:42:42;;;;;;;8.77;6.50;;;10.70;53.90;;;;;;4943146;28;20201;-80
2021/04/09 11:45:12;;;;;;;8.60;6.33;;;10.70;53.70;;;;;;4940083;28;20210;-81
2021/04/09 11:47:43;;;;;;;11.07;6.53;;;10.70;53.60;;;;;;4942589;28;20207;-82
2021/04/09 11:50:16;;;;;;;8.03;6.60;;;10.70;54.30;;;;;;4943966;28;20205;-81
2021/04/09 11:52:59;;;;;;;8.87;6.60;;;10.80;54.00;;;;;;4933572;28;20214;-84
2021/04/09 11:55:30;;;;;;;8.63;7.10;;;10.80;54.10;;;;;;4941929;29;20224;-82
2021/04/09 11:58:17;;;;;;;10.07;7.60;;;10.90;53.90;;;;;;4920641;28;20209;-84
2021/04/09 12:00:54;;;;;;;9.50;6.70;;;10.90;53.70;;;;;;4933177;28;20217;-83
2021/04/09 12:03:37;;;;;;;6.83;6.13;;;10.90;53.40;;;;;;4931737;29;20554;-81
2021/04/09 12:06:17;;;;;;;8.63;7.10;;;11.00;53.00;;;;;;4922638;28;20405;-82
2021/04/09 12:08:45;;;;;;;7.87;6.97;;;11.00;54.00;;;;;;4922790;28;20206;-83
2021/04/09 12:11:18;;;;;;;13.53;7.20;;;11.00;52.90;;;;;;4922716;28;20208;-83
2021/04/09 12:13:48;;;;;;;10.20;6.70;;;11.00;54.20;;;;;;4935704;28;20232;-82
2021/04/09 12:16:15;;;;;;;8.63;6.97;;;11.10;53.30;;;;;;4944449;29;20208;-83
2021/04/09 12:18:44;;;;;;;8.60;6.43;;;11.00;53.10;;;;;;4943461;28;20249;-82
2021/04/09 12:21:13;;;;;;;10.87;7.30;;;11.20;53.90;;;;;;4944109;28;20286;-80
2021/04/09 12:23:44;;;;;;;9.87;6.53;;;11.40;52.40;;;;;;4934012;28;20220;-82
2021/04/09 12:26:12;;;;;;;14.10;7.50;;;11.30;51.70;;;;;;4929683;29;20853;-79
2021/04/09 12:28:41;;;;;;;10.73;7.27;;;11.30;52.70;;;;;;4929644;28;20205;-81
2021/04/09 12:31:09;;;;;;;11.27;7.17;;;11.40;52.00;;;;;;4931956;28;20217;-82
2021/04/09 12:33:37;;;;;;;9.93;6.40;;;11.50;51.40;;;;;;4935805;29;20214;-81
2021/04/09 12:36:06;;;;;;;9.93;6.87;;;11.50;51.00;;;;;;4935235;28;20634;-81
2021/04/09 12:38:35;;;;;;;12.67;7.10;;;11.50;50.60;;;;;;4934608;28;20202;-83
2021/04/09 12:41:06;;;;;;;10.40;6.80;;;11.50;52.40;;;;;;4936624;29;20488;-83
2021/04/09 12:43:39;;;;;;;11.90;7.27;;;11.60;51.30;;;;;;4936150;29;20230;-81
2021/04/09 12:46:07;;;;;;;9.47;6.77;;;11.70;51.20;;;;;;4928989;28;20206;-83
2021/04/09 12:48:35;;;;;;;9.27;7.00;;;11.80;50.60;;;;;;4929086;29;20328;-83
2021/04/09 12:51:03;;;;;;;8.40;6.77;;;11.80;50.60;;;;;;4939114;29;20479;-83
2021/04/09 12:53:33;;;;;;;9.40;7.13;;;11.90;51.30;;;;;;4932578;28;20715;-83
2021/04/09 12:56:03;;;;;;;8.37;7.10;;;11.90;50.50;;;;;;4944498;29;20238;-82
2021/04/09 12:58:34;;;;;;;10.20;7.53;;;11.90;50.50;;;;;;4936778;28;20257;-82
2021/04/09 13:01:02;;;;;;;11.63;7.33;;;11.90;50.60;;;;;;4931785;29;20210;-80